Seaway II — ZMR3466 — position and weather

sailwx.info

Track history (hours):
 
Tides and Currents Weather Stations Pressure Air Temp Water Temp Dewpoint Dewpoint Depression Visibility Wind Speed Wind Dir Waves Ship Positions

Seaway II

Last reported at 2015-May-26 05:29 UTC. Time now 2015-May-26 11:47 UTC.
Position S 36°50' E 174°58'.

Length 37 m.

Type: Passenger vessel. MMSI: 512001026.

Date/timePositionNaut miles runAvg speedWind from/ knotsBaromVisibWave heightAir tempDewpointWater temp
2015-May-26 05:29S 36°50' E 174°58'2 1.5
2015-May-26 04:27S 36°50' E 174°56'3 3.0
2015-May-26 03:33S 36°50' E 174°59'5 4.5
2015-May-26 02:25S 36°53' E 174°54'5 2.4
2015-May-26 00:33S 36°50' E 174°58'4 3.1
2015-May-25 23:15S 36°52' E 174°54'2 1.4
2015-May-25 21:33S 36°50' E 174°56'0 0.4
2015-May-25 20:27S 36°50' E 174°56'0 0.5
2015-May-25 19:33S 36°50' E 174°56'1 0.9
2015-May-25 18:19S 36°50' E 174°57'0 0.4
2015-May-25 17:32S 36°50' E 174°58'4 0.2
2015-May-24 22:33S 36°53' E 174°54'0 0.0
2015-May-24 21:27S 36°53' E 174°54'4 4.3
2015-May-24 20:33S 36°50' E 174°57'2 2.1
2015-May-24 19:33S 36°50' E 174°54'1 0.7
2015-May-24 18:33S 36°51' E 174°54'3 3.2
2015-May-24 17:33S 36°50' E 174°57'4 3.8
2015-May-24 16:28S 36°53' E 174°54'0 0.0
2015-May-24 15:28S 36°53' E 174°54'0 0.0
2015-May-24 11:22S 36°53' E 174°54'0 0.0
2015-May-24 10:28S 36°53' E 174°54'0 0.0
2015-May-24 09:16S 36°53' E 174°54'0 0.0
2015-May-24 08:28S 36°53' E 174°54'0 0.0
2015-May-24 07:31S 36°53' E 174°54'0 0.0
2015-May-24 06:31S 36°53' E 174°54'0 0.0
2015-May-24 05:19S 36°53' E 174°54'3 1.9
2015-May-24 03:34S 36°50' E 174°57'3 3.3
2015-May-24 02:31S 36°53' E 174°54'0 0.0
2015-May-23 10:25S 36°53' E 174°54'0 0.0
2015-May-23 09:13S 36°53' E 174°54'0 0.0
2015-May-23 08:31S 36°53' E 174°54'0 0.0
2015-May-23 07:31S 36°53' E 174°54'0 0.0
2015-May-23 06:31S 36°53' E 174°54'0 0.0
2015-May-23 05:31S 36°53' E 174°54'0 0.0
2015-May-23 04:13S 36°53' E 174°54'0 0.0
2015-May-23 03:30S 36°53' E 174°54'1 0.5
2015-May-23 02:14S 36°52' E 174°54'1 0.6
2015-May-23 00:20S 36°51' E 174°53'0 0.2
2015-May-22 23:04S 36°51' E 174°53'3 1.7
2015-May-22 21:32S 36°51' E 174°57'3 0.2
2015-May-22 07:27S 36°53' E 174°54'6 5.3
2015-May-22 06:15S 36°49' E 175°00'6 5.9
2015-May-22 05:15S 36°52' E 174°54'0 0.1
2015-May-22 02:23S 36°52' E 174°54'3 1.7
2015-May-22 00:33S 36°50' E 174°57'3 2.5
2015-May-21 23:17S 36°52' E 174°54'6 5.7
2015-May-21 22:14S 36°49' E 175°01'6 2.1
2015-May-21 19:08S 36°53' E 174°54'4 5.8
2015-May-21 18:30S 36°50' E 174°56'1 1.2
2015-May-21 17:33S 36°50' E 174°58'4 4.0
2015-May-21 16:31S 36°53' E 174°54'0 0.0
2015-May-21 15:10S 36°53' E 174°54'0 0.0
2015-May-21 11:04S 36°53' E 174°54'0 0.0
2015-May-21 10:04S 36°53' E 174°54'1 0.4
2015-May-21 06:33S 36°51' E 174°54'3 3.2
2015-May-21 05:32S 36°50' E 174°57'4 0.9
2015-May-21 01:24S 36°53' E 174°54'4 0.6
2015-May-20 19:33S 36°50' E 174°57'1 0.7
2015-May-20 18:28S 36°50' E 174°56'1 0.9
2015-May-20 17:33S 36°50' E 174°57'4 1.2
2015-May-20 14:26S 36°53' E 174°54'0 0.0
2015-May-20 13:31S 36°53' E 174°54'0 0.0
2015-May-20 12:25S 36°53' E 174°54'0 0.0
2015-May-20 10:25S 36°53' E 174°54'0 0.0
2015-May-20 09:31S 36°53' E 174°54'0 0.0
2015-May-20 08:13S 36°53' E 174°54'1 0.6
2015-May-20 06:33S 36°52' E 174°54'4 3.9
2015-May-20 05:33S 36°50' E 174°58'2 1.7
2015-May-20 04:31S 36°50' E 174°56'1 1.3
2015-May-20 03:33S 36°49' E 174°55'3 2.9
2015-May-20 02:31S 36°52' E 174°54'3 1.7
2015-May-20 00:32S 36°50' E 174°57'4 2.9
2015-May-19 23:20S 36°52' E 174°54'3 1.8
2015-May-19 21:31S 36°50' E 174°57'3 3.0
2015-May-19 20:33S 36°52' E 174°54'4 3.5
2015-May-19 19:31S 36°50' E 174°58'4 3.7
2015-May-19 18:33S 36°51' E 174°54'3 2.7
2015-May-19 17:33S 36°50' E 174°57'0 0.0
2015-May-19 05:31S 36°50' E 174°57'2 1.1
2015-May-19 03:32S 36°49' E 174°55'2 2.4
2015-May-19 02:33S 36°52' E 174°54'0 0.1
2015-May-18 23:19S 36°52' E 174°54'2 1.2
2015-May-18 21:31S 36°50' E 174°56'0 0.2
2015-May-18 19:33S 36°50' E 174°56'2 2.3
2015-May-18 18:33S 36°51' E 174°54'3 3.2
2015-May-18 17:34S 36°50' E 174°57'4 3.7
2015-May-18 16:28S 36°53' E 174°54'0 0.0
2015-May-18 15:10S 36°53' E 174°54'0 0.0
2015-May-18 14:22S 36°53' E 174°54'0 0.0
2015-May-18 13:04S 36°53' E 174°54'0 0.0
2015-May-18 12:22S 36°53' E 174°54'0 0.0
2015-May-18 11:22S 36°53' E 174°54'0 0.0
2015-May-18 10:33S 36°53' E 174°54'0 0.0
2015-May-18 09:33S 36°53' E 174°54'0 0.0
2015-May-18 08:09S 36°53' E 174°54'0 0.0
2015-May-18 07:27S 36°53' E 174°54'2 2.2
2015-May-18 06:33S 36°51' E 174°53'3 3.0
2015-May-18 05:34S 36°50' E 174°57'1 0.5
2015-May-18 03:33S 36°50' E 174°56'3 1.3
2015-May-18 01:13S 36°53' E 174°54'0 0.0
2015-May-17 21:10S 36°53' E 174°54'2 3.1
2015-May-17 20:33S 36°51' E 174°53'3 3.0
2015-May-17 19:33S 36°50' E 174°57'3 3.0
2015-May-17 18:33S 36°51' E 174°54'4 3.5
2015-May-17 17:33S 36°50' E 174°58'4 2.1
2015-May-17 15:31S 36°53' E 174°54'0 0.0
2015-May-17 14:31S 36°53' E 174°54'0 0.0
2015-May-17 13:31S 36°53' E 174°54'0 0.0
2015-May-17 12:31S 36°53' E 174°54'0 0.0
2015-May-17 10:19S 36°53' E 174°54'0 0.0
2015-May-17 08:19S 36°53' E 174°54'0 0.0
2015-May-17 07:25S 36°53' E 174°54'0 0.0
2015-May-17 06:23S 36°53' E 174°54'0 0.0
2015-May-17 05:29S 36°53' E 174°54'4 2.0
2015-May-17 03:33S 36°50' E 174°57'3 2.7
2015-May-17 02:17S 36°52' E 174°54'3 1.6
2015-May-17 00:26S 36°50' E 174°53'3 2.4
2015-May-16 23:17S 36°52' E 174°54'3 1.6
2015-May-16 21:33S 36°50' E 174°56'3 2.2
2015-May-16 20:16S 36°52' E 174°54'3 1.9
2015-May-16 18:33S 36°50' E 174°57'4 3.6
2015-May-16 17:32S 36°53' E 174°54'0 0.0
2015-May-16 16:28S 36°53' E 174°54'0 0.0
2015-May-16 15:32S 36°53' E 174°54'0 0.0
2015-May-16 14:29S 36°53' E 174°54'0 0.0
2015-May-16 13:32S 36°53' E 174°54'0 0.0
2015-May-16 12:31S 36°53' E 174°54'0 0.0
2015-May-16 11:28S 36°53' E 174°54'0 0.0
2015-May-16 10:28S 36°53' E 174°54'0 0.0
2015-May-16 09:28S 36°53' E 174°54'0 0.0
2015-May-16 08:28S 36°53' E 174°54'0 0.0
2015-May-16 07:28S 36°53' E 174°54'0 0.0
2015-May-16 06:31S 36°53' E 174°54'  
Track history (hours):
 
Tides and Currents Weather Stations Pressure Air Temp Water Temp Dewpoint Dewpoint Depression Visibility Wind Speed Wind Dir Waves Ship Positions

Seaway II

Last reported at 2015-May-26 05:29 UTC. Time now 2015-May-26 11:47 UTC.
Position S 36°50' E 174°58'.

Length 37 m.

Type: Passenger vessel. MMSI: 512001026.

Date/timePositionNaut miles runAvg speedWind from/ knotsBaromVisibWave heightAir tempDewpointWater temp
2015-May-26 05:29S 36°50' E 174°58'2 1.5
2015-May-26 04:27S 36°50' E 174°56'3 3.0
2015-May-26 03:33S 36°50' E 174°59'5 4.5
2015-May-26 02:25S 36°53' E 174°54'5 2.4
2015-May-26 00:33S 36°50' E 174°58'4 3.1
2015-May-25 23:15S 36°52' E 174°54'2 1.4
2015-May-25 21:33S 36°50' E 174°56'0 0.4
2015-May-25 20:27S 36°50' E 174°56'0 0.5
2015-May-25 19:33S 36°50' E 174°56'1 0.9
2015-May-25 18:19S 36°50' E 174°57'0 0.4
2015-May-25 17:32S 36°50' E 174°58'4 0.2
2015-May-24 22:33S 36°53' E 174°54'0 0.0
2015-May-24 21:27S 36°53' E 174°54'4 4.3
2015-May-24 20:33S 36°50' E 174°57'2 2.1
2015-May-24 19:33S 36°50' E 174°54'1 0.7
2015-May-24 18:33S 36°51' E 174°54'3 3.2
2015-May-24 17:33S 36°50' E 174°57'4 3.8
2015-May-24 16:28S 36°53' E 174°54'0 0.0
2015-May-24 15:28S 36°53' E 174°54'0 0.0
2015-May-24 11:22S 36°53' E 174°54'0 0.0
2015-May-24 10:28S 36°53' E 174°54'0 0.0
2015-May-24 09:16S 36°53' E 174°54'0 0.0
2015-May-24 08:28S 36°53' E 174°54'0 0.0
2015-May-24 07:31S 36°53' E 174°54'0 0.0
2015-May-24 06:31S 36°53' E 174°54'0 0.0
2015-May-24 05:19S 36°53' E 174°54'3 1.9
2015-May-24 03:34S 36°50' E 174°57'3 3.3
2015-May-24 02:31S 36°53' E 174°54'0 0.0
2015-May-23 10:25S 36°53' E 174°54'0 0.0
2015-May-23 09:13S 36°53' E 174°54'0 0.0
2015-May-23 08:31S 36°53' E 174°54'0 0.0
2015-May-23 07:31S 36°53' E 174°54'0 0.0
2015-May-23 06:31S 36°53' E 174°54'0 0.0
2015-May-23 05:31S 36°53' E 174°54'0 0.0
2015-May-23 04:13S 36°53' E 174°54'0 0.0
2015-May-23 03:30S 36°53' E 174°54'1 0.5
2015-May-23 02:14S 36°52' E 174°54'1 0.6
2015-May-23 00:20S 36°51' E 174°53'0 0.2
2015-May-22 23:04S 36°51' E 174°53'3 1.7
2015-May-22 21:32S 36°51' E 174°57'3 0.2
2015-May-22 07:27S 36°53' E 174°54'6 5.3
2015-May-22 06:15S 36°49' E 175°00'6 5.9
2015-May-22 05:15S 36°52' E 174°54'0 0.1
2015-May-22 02:23S 36°52' E 174°54'3 1.7
2015-May-22 00:33S 36°50' E 174°57'3 2.5
2015-May-21 23:17S 36°52' E 174°54'6 5.7
2015-May-21 22:14S 36°49' E 175°01'6 2.1
2015-May-21 19:08S 36°53' E 174°54'4 5.8
2015-May-21 18:30S 36°50' E 174°56'1 1.2
2015-May-21 17:33S 36°50' E 174°58'4 4.0
2015-May-21 16:31S 36°53' E 174°54'0 0.0
2015-May-21 15:10S 36°53' E 174°54'0 0.0
2015-May-21 11:04S 36°53' E 174°54'0 0.0
2015-May-21 10:04S 36°53' E 174°54'1 0.4
2015-May-21 06:33S 36°51' E 174°54'3 3.2
2015-May-21 05:32S 36°50' E 174°57'4 0.9
2015-May-21 01:24S 36°53' E 174°54'4 0.6
2015-May-20 19:33S 36°50' E 174°57'1 0.7
2015-May-20 18:28S 36°50' E 174°56'1 0.9
2015-May-20 17:33S 36°50' E 174°57'4 1.2
2015-May-20 14:26S 36°53' E 174°54'0 0.0
2015-May-20 13:31S 36°53' E 174°54'0 0.0
2015-May-20 12:25S 36°53' E 174°54'0 0.0
2015-May-20 10:25S 36°53' E 174°54'0 0.0
2015-May-20 09:31S 36°53' E 174°54'0 0.0
2015-May-20 08:13S 36°53' E 174°54'1 0.6
2015-May-20 06:33S 36°52' E 174°54'4 3.9
2015-May-20 05:33S 36°50' E 174°58'2 1.7
2015-May-20 04:31S 36°50' E 174°56'1 1.3
2015-May-20 03:33S 36°49' E 174°55'3 2.9
2015-May-20 02:31S 36°52' E 174°54'3 1.7
2015-May-20 00:32S 36°50' E 174°57'4 2.9
2015-May-19 23:20S 36°52' E 174°54'3 1.8
2015-May-19 21:31S 36°50' E 174°57'3 3.0
2015-May-19 20:33S 36°52' E 174°54'4 3.5
2015-May-19 19:31S 36°50' E 174°58'4 3.7
2015-May-19 18:33S 36°51' E 174°54'3 2.7
2015-May-19 17:33S 36°50' E 174°57'0 0.0
2015-May-19 05:31S 36°50' E 174°57'2 1.1
2015-May-19 03:32S 36°49' E 174°55'2 2.4
2015-May-19 02:33S 36°52' E 174°54'0 0.1
2015-May-18 23:19S 36°52' E 174°54'2 1.2
2015-May-18 21:31S 36°50' E 174°56'0 0.2
2015-May-18 19:33S 36°50' E 174°56'2 2.3
2015-May-18 18:33S 36°51' E 174°54'3 3.2
2015-May-18 17:34S 36°50' E 174°57'4 3.7
2015-May-18 16:28S 36°53' E 174°54'0 0.0
2015-May-18 15:10S 36°53' E 174°54'0 0.0
2015-May-18 14:22S 36°53' E 174°54'0 0.0
2015-May-18 13:04S 36°53' E 174°54'0 0.0
2015-May-18 12:22S 36°53' E 174°54'0 0.0
2015-May-18 11:22S 36°53' E 174°54'0 0.0
2015-May-18 10:33S 36°53' E 174°54'0 0.0
2015-May-18 09:33S 36°53' E 174°54'0 0.0
2015-May-18 08:09S 36°53' E 174°54'0 0.0
2015-May-18 07:27S 36°53' E 174°54'2 2.2
2015-May-18 06:33S 36°51' E 174°53'3 3.0
2015-May-18 05:34S 36°50' E 174°57'1 0.5
2015-May-18 03:33S 36°50' E 174°56'3 1.3
2015-May-18 01:13S 36°53' E 174°54'0 0.0
2015-May-17 21:10S 36°53' E 174°54'2 3.1
2015-May-17 20:33S 36°51' E 174°53'3 3.0
2015-May-17 19:33S 36°50' E 174°57'3 3.0
2015-May-17 18:33S 36°51' E 174°54'4 3.5
2015-May-17 17:33S 36°50' E 174°58'4 2.1
2015-May-17 15:31S 36°53' E 174°54'0 0.0
2015-May-17 14:31S 36°53' E 174°54'0 0.0
2015-May-17 13:31S 36°53' E 174°54'0 0.0
2015-May-17 12:31S 36°53' E 174°54'0 0.0
2015-May-17 10:19S 36°53' E 174°54'0 0.0
2015-May-17 08:19S 36°53' E 174°54'0 0.0
2015-May-17 07:25S 36°53' E 174°54'0 0.0
2015-May-17 06:23S 36°53' E 174°54'0 0.0
2015-May-17 05:29S 36°53' E 174°54'4 2.0
2015-May-17 03:33S 36°50' E 174°57'3 2.7
2015-May-17 02:17S 36°52' E 174°54'3 1.6
2015-May-17 00:26S 36°50' E 174°53'3 2.4
2015-May-16 23:17S 36°52' E 174°54'3 1.6
2015-May-16 21:33S 36°50' E 174°56'3 2.2
2015-May-16 20:16S 36°52' E 174°54'3 1.9
2015-May-16 18:33S 36°50' E 174°57'4 3.6
2015-May-16 17:32S 36°53' E 174°54'0 0.0
2015-May-16 16:28S 36°53' E 174°54'0 0.0
2015-May-16 15:32S 36°53' E 174°54'0 0.0
2015-May-16 14:29S 36°53' E 174°54'0 0.0
2015-May-16 13:32S 36°53' E 174°54'0 0.0
2015-May-16 12:31S 36°53' E 174°54'0 0.0
2015-May-16 11:28S 36°53' E 174°54'0 0.0
2015-May-16 10:28S 36°53' E 174°54'0 0.0
2015-May-16 09:28S 36°53' E 174°54'0 0.0
2015-May-16 08:28S 36°53' E 174°54'0 0.0
2015-May-16 07:28S 36°53' E 174°54'0 0.0
2015-May-16 06:31S 36°53' E 174°54'  

Dump ship's entire track history